sim
Sign-in with your pilot id or email,
or register
Callsign
Passwort

Schedule Details

Flight Number: EWG1785 (2)
Departure: Cologne Bonn Airport (EDDK) at 08:35
Arrival: Munich Airport (EDDM) at 09:45
Route: Eurowings Passenger Schedule. Enter filed route here before submitting Pirep.

Weather Information
Getting current METAR information for EDDK 221550Z 35005KT CAVOK 26/09 Q1007 NOSIG
Getting current METAR information for EDDM 221550Z VRB02KT 9999 FEW040CB 23/14 Q1010 NOSIG

Schedule Frequency

Route Map